sensor_id;sensor_type;location;lat;lon;timestamp;temperature;humidity
54126;DHT22;40360;52.992;6.796;2023-04-15T00:00:58;6.20;99.90
54126;DHT22;40360;52.992;6.796;2023-04-15T00:03:24;6.20;99.90
54126;DHT22;40360;52.992;6.796;2023-04-15T00:05:49;6.20;99.90
54126;DHT22;40360;52.992;6.796;2023-04-15T00:08:15;6.20;99.90
54126;DHT22;40360;52.992;6.796;2023-04-15T00:10:41;6.20;99.90
54126;DHT22;40360;52.992;6.796;2023-04-15T00:13:08;6.20;99.90
54126;DHT22;40360;52.992;6.796;2023-04-15T00:15:34;6.20;99.90
54126;DHT22;40360;52.992;6.796;2023-04-15T00:18:01;6.10;99.90
54126;DHT22;40360;52.992;6.796;2023-04-15T00:20:26;6.10;99.90
54126;DHT22;40360;52.992;6.796;2023-04-15T00:22:52;6.10;99.90
54126;DHT22;40360;52.992;6.796;2023-04-15T00:25:18;6.10;99.90
54126;DHT22;40360;52.992;6.796;2023-04-15T00:27:43;6.10;99.90
54126;DHT22;40360;52.992;6.796;2023-04-15T00:30:09;6.00;99.90
54126;DHT22;40360;52.992;6.796;2023-04-15T00:32:36;6.00;99.90
54126;DHT22;40360;52.992;6.796;2023-04-15T00:35:01;6.00;99.90
54126;DHT22;40360;52.992;6.796;2023-04-15T00:37:28;6.00;99.90
54126;DHT22;40360;52.992;6.796;2023-04-15T00:39:54;6.00;99.90
54126;DHT22;40360;52.992;6.796;2023-04-15T00:42:20;6.00;99.90
54126;DHT22;40360;52.992;6.796;2023-04-15T00:44:46;6.00;99.90
54126;DHT22;40360;52.992;6.796;2023-04-15T00:47:12;5.90;99.90
54126;DHT22;40360;52.992;6.796;2023-04-15T00:49:39;5.90;99.90
54126;DHT22;40360;52.992;6.796;2023-04-15T00:52:04;5.90;99.90
54126;DHT22;40360;52.992;6.796;2023-04-15T00:54:30;5.90;99.90
54126;DHT22;40360;52.992;6.796;2023-04-15T00:56:56;5.90;99.90
54126;DHT22;40360;52.992;6.796;2023-04-15T00:59:22;5.90;99.90
54126;DHT22;40360;52.992;6.796;2023-04-15T01:01:48;5.80;99.90
54126;DHT22;40360;52.992;6.796;2023-04-15T01:04:15;5.80;99.90
54126;DHT22;40360;52.992;6.796;2023-04-15T01:06:40;5.80;99.90
54126;DHT22;40360;52.992;6.796;2023-04-15T01:09:06;5.80;99.90
54126;DHT22;40360;52.992;6.796;2023-04-15T01:11:32;5.70;99.90
54126;DHT22;40360;52.992;6.796;2023-04-15T01:13:58;5.70;99.90
54126;DHT22;40360;52.992;6.796;2023-04-15T01:16:25;5.70;99.90
54126;DHT22;40360;52.992;6.796;2023-04-15T01:18:51;5.70;99.90
54126;DHT22;40360;52.992;6.796;2023-04-15T01:21:17;5.70;99.90
54126;DHT22;40360;52.992;6.796;2023-04-15T01:23:46;5.60;99.90
54126;DHT22;40360;52.992;6.796;2023-04-15T01:26:12;5.60;99.90
54126;DHT22;40360;52.992;6.796;2023-04-15T01:28:38;5.60;99.90
54126;DHT22;40360;52.992;6.796;2023-04-15T01:31:14;5.60;99.90
54126;DHT22;40360;52.992;6.796;2023-04-15T01:33:41;5.50;99.90
54126;DHT22;40360;52.992;6.796;2023-04-15T01:36:08;5.50;99.90
54126;DHT22;40360;52.992;6.796;2023-04-15T01:38:35;5.50;99.90
54126;DHT22;40360;52.992;6.796;2023-04-15T01:41:01;5.50;99.90
54126;DHT22;40360;52.992;6.796;2023-04-15T01:43:29;5.50;99.90
54126;DHT22;40360;52.992;6.796;2023-04-15T01:45:54;5.40;99.90
54126;DHT22;40360;52.992;6.796;2023-04-15T01:48:21;5.40;99.90
54126;DHT22;40360;52.992;6.796;2023-04-15T01:50:47;5.40;99.90
54126;DHT22;40360;52.992;6.796;2023-04-15T01:53:13;5.40;99.90
54126;DHT22;40360;52.992;6.796;2023-04-15T01:55:38;5.40;99.90
54126;DHT22;40360;52.992;6.796;2023-04-15T01:58:04;5.40;99.90
54126;DHT22;40360;52.992;6.796;2023-04-15T02:00:30;5.40;99.90
54126;DHT22;40360;52.992;6.796;2023-04-15T02:02:57;5.40;99.90
54126;DHT22;40360;52.992;6.796;2023-04-15T02:05:24;5.30;99.90
54126;DHT22;40360;52.992;6.796;2023-04-15T02:07:50;5.30;99.90
54126;DHT22;40360;52.992;6.796;2023-04-15T02:10:16;5.30;99.90
54126;DHT22;40360;52.992;6.796;2023-04-15T02:12:41;5.20;99.90
54126;DHT22;40360;52.992;6.796;2023-04-15T02:15:08;5.20;99.90
54126;DHT22;40360;52.992;6.796;2023-04-15T02:17:35;5.20;99.90
54126;DHT22;40360;52.992;6.796;2023-04-15T02:20:01;5.30;99.90
54126;DHT22;40360;52.992;6.796;2023-04-15T02:22:26;5.10;99.90
54126;DHT22;40360;52.992;6.796;2023-04-15T02:24:52;5.10;99.90
54126;DHT22;40360;52.992;6.796;2023-04-15T02:27:18;5.10;99.90
54126;DHT22;40360;52.992;6.796;2023-04-15T02:29:44;5.10;99.90
54126;DHT22;40360;52.992;6.796;2023-04-15T02:32:11;5.10;99.90
54126;DHT22;40360;52.992;6.796;2023-04-15T02:34:38;5.20;99.90
54126;DHT22;40360;52.992;6.796;2023-04-15T02:37:06;5.00;99.90
54126;DHT22;40360;52.992;6.796;2023-04-15T02:39:32;5.00;99.90
54126;DHT22;40360;52.992;6.796;2023-04-15T02:41:58;5.00;99.90
54126;DHT22;40360;52.992;6.796;2023-04-15T02:44:25;5.00;99.90
54126;DHT22;40360;52.992;6.796;2023-04-15T02:46:52;5.00;99.90
54126;DHT22;40360;52.992;6.796;2023-04-15T02:49:22;5.00;99.90
54126;DHT22;40360;52.992;6.796;2023-04-15T02:51:48;5.00;99.90
54126;DHT22;40360;52.992;6.796;2023-04-15T02:54:21;5.10;99.90
54126;DHT22;40360;52.992;6.796;2023-04-15T02:56:50;5.00;99.90
54126;DHT22;40360;52.992;6.796;2023-04-15T02:59:19;5.00;99.90
54126;DHT22;40360;52.992;6.796;2023-04-15T03:01:45;4.90;99.90
54126;DHT22;40360;52.992;6.796;2023-04-15T03:04:10;5.00;99.90
54126;DHT22;40360;52.992;6.796;2023-04-15T03:06:36;5.00;99.90
54126;DHT22;40360;52.992;6.796;2023-04-15T03:09:02;5.00;99.90
54126;DHT22;40360;52.992;6.796;2023-04-15T03:11:31;4.90;99.90
54126;DHT22;40360;52.992;6.796;2023-04-15T03:13:57;4.90;99.90
54126;DHT22;40360;52.992;6.796;2023-04-15T03:16:23;4.90;99.90
54126;DHT22;40360;52.992;6.796;2023-04-15T03:18:49;4.90;99.90
54126;DHT22;40360;52.992;6.796;2023-04-15T03:21:15;4.80;99.90
54126;DHT22;40360;52.992;6.796;2023-04-15T03:23:41;4.80;99.90
54126;DHT22;40360;52.992;6.796;2023-04-15T03:26:06;4.80;99.90
54126;DHT22;40360;52.992;6.796;2023-04-15T03:28:32;4.80;99.90
54126;DHT22;40360;52.992;6.796;2023-04-15T03:30:58;4.70;99.90
54126;DHT22;40360;52.992;6.796;2023-04-15T03:33:24;4.70;99.90
54126;DHT22;40360;52.992;6.796;2023-04-15T03:35:50;4.70;99.90
54126;DHT22;40360;52.992;6.796;2023-04-15T03:38:17;4.70;99.90
54126;DHT22;40360;52.992;6.796;2023-04-15T03:40:43;4.60;99.90
54126;DHT22;40360;52.992;6.796;2023-04-15T03:43:08;4.60;99.90
54126;DHT22;40360;52.992;6.796;2023-04-15T03:45:34;4.60;99.90
54126;DHT22;40360;52.992;6.796;2023-04-15T03:48:00;4.60;99.90
54126;DHT22;40360;52.992;6.796;2023-04-15T03:50:25;4.60;99.90
54126;DHT22;40360;52.992;6.796;2023-04-15T03:52:52;4.60;99.90
54126;DHT22;40360;52.992;6.796;2023-04-15T03:55:17;4.60;99.90
54126;DHT22;40360;52.992;6.796;2023-04-15T03:57:44;4.60;99.90
54126;DHT22;40360;52.992;6.796;2023-04-15T04:00:10;4.60;99.90
54126;DHT22;40360;52.992;6.796;2023-04-15T04:02:36;4.60;99.90
54126;DHT22;40360;52.992;6.796;2023-04-15T04:05:02;4.60;99.90
54126;DHT22;40360;52.992;6.796;2023-04-15T04:07:27;4.60;99.90
54126;DHT22;40360;52.992;6.796;2023-04-15T04:09:53;4.60;99.90
54126;DHT22;40360;52.992;6.796;2023-04-15T04:12:18;4.60;99.90
54126;DHT22;40360;52.992;6.796;2023-04-15T04:14:44;4.50;99.90
54126;DHT22;40360;52.992;6.796;2023-04-15T04:17:10;4.50;99.90
54126;DHT22;40360;52.992;6.796;2023-04-15T04:19:36;4.60;99.90
54126;DHT22;40360;52.992;6.796;2023-04-15T04:22:01;4.60;99.90
54126;DHT22;40360;52.992;6.796;2023-04-15T04:24:27;4.60;99.90
54126;DHT22;40360;52.992;6.796;2023-04-15T04:26:53;4.60;99.90
54126;DHT22;40360;52.992;6.796;2023-04-15T04:29:18;4.60;99.90
54126;DHT22;40360;52.992;6.796;2023-04-15T04:31:44;4.60;99.90
54126;DHT22;40360;52.992;6.796;2023-04-15T04:34:10;4.50;99.90
54126;DHT22;40360;52.992;6.796;2023-04-15T04:36:36;4.50;99.90
54126;DHT22;40360;52.992;6.796;2023-04-15T04:39:01;4.50;99.90
54126;DHT22;40360;52.992;6.796;2023-04-15T04:41:27;4.50;99.90
54126;DHT22;40360;52.992;6.796;2023-04-15T04:43:52;4.40;99.90
54126;DHT22;40360;52.992;6.796;2023-04-15T04:46:18;4.40;99.90
54126;DHT22;40360;52.992;6.796;2023-04-15T04:48:44;4.40;99.90
54126;DHT22;40360;52.992;6.796;2023-04-15T04:51:10;4.30;99.90
54126;DHT22;40360;52.992;6.796;2023-04-15T04:53:35;4.30;99.90
54126;DHT22;40360;52.992;6.796;2023-04-15T04:56:02;4.30;99.90
54126;DHT22;40360;52.992;6.796;2023-04-15T04:58:28;4.30;99.90
54126;DHT22;40360;52.992;6.796;2023-04-15T05:00:53;4.30;99.90
54126;DHT22;40360;52.992;6.796;2023-04-15T05:03:20;4.30;99.90
54126;DHT22;40360;52.992;6.796;2023-04-15T05:05:46;4.40;99.90
54126;DHT22;40360;52.992;6.796;2023-04-15T05:08:14;4.50;99.90
54126;DHT22;40360;52.992;6.796;2023-04-15T05:10:39;4.50;99.90
54126;DHT22;40360;52.992;6.796;2023-04-15T05:13:05;4.60;99.90
54126;DHT22;40360;52.992;6.796;2023-04-15T05:15:31;4.60;99.90
54126;DHT22;40360;52.992;6.796;2023-04-15T05:17:57;4.70;99.90
54126;DHT22;40360;52.992;6.796;2023-04-15T05:20:23;4.80;99.90
54126;DHT22;40360;52.992;6.796;2023-04-15T05:22:48;4.80;99.90
54126;DHT22;40360;52.992;6.796;2023-04-15T05:25:14;4.80;99.90
54126;DHT22;40360;52.992;6.796;2023-04-15T05:27:40;5.00;99.90
54126;DHT22;40360;52.992;6.796;2023-04-15T05:30:06;5.00;99.90
54126;DHT22;40360;52.992;6.796;2023-04-15T05:32:31;5.00;99.90
54126;DHT22;40360;52.992;6.796;2023-04-15T05:34:57;5.10;99.90
54126;DHT22;40360;52.992;6.796;2023-04-15T05:37:23;5.20;99.90
54126;DHT22;40360;52.992;6.796;2023-04-15T05:39:48;5.20;99.90
54126;DHT22;40360;52.992;6.796;2023-04-15T05:42:14;5.30;99.90
54126;DHT22;40360;52.992;6.796;2023-04-15T06:00:48;5.60;99.90
54126;DHT22;40360;52.992;6.796;2023-04-15T06:03:13;5.60;99.90
54126;DHT22;40360;52.992;6.796;2023-04-15T06:05:40;5.60;99.90
54126;DHT22;40360;52.992;6.796;2023-04-15T06:08:05;5.70;99.90
54126;DHT22;40360;52.992;6.796;2023-04-15T06:10:31;5.70;99.90
54126;DHT22;40360;52.992;6.796;2023-04-15T06:13:04;5.70;99.90
54126;DHT22;40360;52.992;6.796;2023-04-15T06:15:29;5.80;99.90
54126;DHT22;40360;52.992;6.796;2023-04-15T06:17:56;5.80;99.90
54126;DHT22;40360;52.992;6.796;2023-04-15T06:20:22;5.90;99.90
54126;DHT22;40360;52.992;6.796;2023-04-15T06:22:48;5.90;99.90
54126;DHT22;40360;52.992;6.796;2023-04-15T06:25:14;5.90;99.90
54126;DHT22;40360;52.992;6.796;2023-04-15T06:27:39;6.00;99.90
54126;DHT22;40360;52.992;6.796;2023-04-15T06:30:06;6.10;99.90
54126;DHT22;40360;52.992;6.796;2023-04-15T06:32:32;6.10;99.90
54126;DHT22;40360;52.992;6.796;2023-04-15T06:34:58;6.20;99.90
54126;DHT22;40360;52.992;6.796;2023-04-15T06:37:23;6.20;99.90
54126;DHT22;40360;52.992;6.796;2023-04-15T06:39:49;6.30;99.90
54126;DHT22;40360;52.992;6.796;2023-04-15T06:42:15;6.30;99.90
54126;DHT22;40360;52.992;6.796;2023-04-15T06:44:40;6.40;99.90
54126;DHT22;40360;52.992;6.796;2023-04-15T06:47:06;6.50;99.90
54126;DHT22;40360;52.992;6.796;2023-04-15T06:49:33;6.50;99.90
54126;DHT22;40360;52.992;6.796;2023-04-15T06:51:59;6.60;99.90
54126;DHT22;40360;52.992;6.796;2023-04-15T06:54:26;6.70;99.90
54126;DHT22;40360;52.992;6.796;2023-04-15T06:56:51;6.70;99.90
54126;DHT22;40360;52.992;6.796;2023-04-15T06:59:17;6.80;99.90
54126;DHT22;40360;52.992;6.796;2023-04-15T07:01:43;6.90;99.90
54126;DHT22;40360;52.992;6.796;2023-04-15T07:04:09;6.90;99.90
54126;DHT22;40360;52.992;6.796;2023-04-15T07:06:35;7.00;99.90
54126;DHT22;40360;52.992;6.796;2023-04-15T07:09:01;7.00;99.90
54126;DHT22;40360;52.992;6.796;2023-04-15T07:11:27;7.10;99.90
54126;DHT22;40360;52.992;6.796;2023-04-15T07:13:53;7.20;99.90
54126;DHT22;40360;52.992;6.796;2023-04-15T07:16:18;7.20;99.90
54126;DHT22;40360;52.992;6.796;2023-04-15T07:18:44;7.30;99.90
54126;DHT22;40360;52.992;6.796;2023-04-15T07:21:10;7.40;99.90
54126;DHT22;40360;52.992;6.796;2023-04-15T07:23:36;7.40;99.90
54126;DHT22;40360;52.992;6.796;2023-04-15T07:26:02;7.50;99.90
54126;DHT22;40360;52.992;6.796;2023-04-15T07:28:28;7.50;99.90
54126;DHT22;40360;52.992;6.796;2023-04-15T07:30:54;7.60;99.90
54126;DHT22;40360;52.992;6.796;2023-04-15T07:33:22;7.60;99.90
54126;DHT22;40360;52.992;6.796;2023-04-15T07:35:48;7.70;99.90
54126;DHT22;40360;52.992;6.796;2023-04-15T07:38:13;7.70;99.90
54126;DHT22;40360;52.992;6.796;2023-04-15T07:40:39;7.80;99.90
54126;DHT22;40360;52.992;6.796;2023-04-15T07:43:05;7.90;99.90
54126;DHT22;40360;52.992;6.796;2023-04-15T07:45:31;8.00;99.90
54126;DHT22;40360;52.992;6.796;2023-04-15T07:47:57;8.10;99.90
54126;DHT22;40360;52.992;6.796;2023-04-15T07:50:23;8.10;99.90
54126;DHT22;40360;52.992;6.796;2023-04-15T07:52:49;8.20;99.90
54126;DHT22;40360;52.992;6.796;2023-04-15T07:55:19;8.30;99.90
54126;DHT22;40360;52.992;6.796;2023-04-15T07:57:48;8.40;99.90
54126;DHT22;40360;52.992;6.796;2023-04-15T08:00:14;8.50;99.90
54126;DHT22;40360;52.992;6.796;2023-04-15T08:02:41;8.60;99.90
54126;DHT22;40360;52.992;6.796;2023-04-15T08:05:11;8.60;99.90
54126;DHT22;40360;52.992;6.796;2023-04-15T08:07:37;8.60;99.90
54126;DHT22;40360;52.992;6.796;2023-04-15T08:10:03;8.60;99.90
54126;DHT22;40360;52.992;6.796;2023-04-15T08:12:29;8.60;99.90
54126;DHT22;40360;52.992;6.796;2023-04-15T08:14:55;8.60;99.90
54126;DHT22;40360;52.992;6.796;2023-04-15T08:17:22;8.60;99.90
54126;DHT22;40360;52.992;6.796;2023-04-15T08:19:48;8.60;99.90
54126;DHT22;40360;52.992;6.796;2023-04-15T08:22:14;8.60;99.90
54126;DHT22;40360;52.992;6.796;2023-04-15T08:24:39;8.60;99.90
54126;DHT22;40360;52.992;6.796;2023-04-15T08:27:07;8.60;99.90
54126;DHT22;40360;52.992;6.796;2023-04-15T08:29:33;8.60;99.90
54126;DHT22;40360;52.992;6.796;2023-04-15T08:31:59;8.50;99.90
54126;DHT22;40360;52.992;6.796;2023-04-15T08:34:26;8.50;99.90
54126;DHT22;40360;52.992;6.796;2023-04-15T08:36:52;8.50;99.90
54126;DHT22;40360;52.992;6.796;2023-04-15T08:39:17;8.50;99.90
54126;DHT22;40360;52.992;6.796;2023-04-15T08:41:49;8.50;99.90
54126;DHT22;40360;52.992;6.796;2023-04-15T08:44:17;8.50;99.90
54126;DHT22;40360;52.992;6.796;2023-04-15T08:46:45;8.50;99.90
54126;DHT22;40360;52.992;6.796;2023-04-15T08:49:12;8.50;99.90
54126;DHT22;40360;52.992;6.796;2023-04-15T08:51:39;8.50;99.90
54126;DHT22;40360;52.992;6.796;2023-04-15T08:54:06;8.50;99.90
54126;DHT22;40360;52.992;6.796;2023-04-15T08:56:33;8.50;99.90
54126;DHT22;40360;52.992;6.796;2023-04-15T08:58:59;8.50;99.90
54126;DHT22;40360;52.992;6.796;2023-04-15T09:01:25;8.50;99.90
54126;DHT22;40360;52.992;6.796;2023-04-15T09:03:51;8.50;99.90
54126;DHT22;40360;52.992;6.796;2023-04-15T09:06:19;8.60;99.90
54126;DHT22;40360;52.992;6.796;2023-04-15T09:08:45;8.60;99.90
54126;DHT22;40360;52.992;6.796;2023-04-15T09:11:11;8.70;99.90
54126;DHT22;40360;52.992;6.796;2023-04-15T09:13:38;8.80;99.90
54126;DHT22;40360;52.992;6.796;2023-04-15T09:16:06;8.80;99.90
54126;DHT22;40360;52.992;6.796;2023-04-15T09:18:34;8.90;99.90
54126;DHT22;40360;52.992;6.796;2023-04-15T09:21:11;8.90;99.90
54126;DHT22;40360;52.992;6.796;2023-04-15T09:23:55;9.10;99.90
54126;DHT22;40360;52.992;6.796;2023-04-15T09:26:37;8.90;99.90
54126;DHT22;40360;52.992;6.796;2023-04-15T09:29:06;9.00;99.90
54126;DHT22;40360;52.992;6.796;2023-04-15T09:31:32;8.90;99.90
54126;DHT22;40360;52.992;6.796;2023-04-15T09:33:58;9.00;99.90
54126;DHT22;40360;52.992;6.796;2023-04-15T09:36:24;8.90;99.90
54126;DHT22;40360;52.992;6.796;2023-04-15T09:38:57;8.90;99.90
54126;DHT22;40360;52.992;6.796;2023-04-15T09:41:24;8.90;99.90
54126;DHT22;40360;52.992;6.796;2023-04-15T09:43:49;9.00;99.90
54126;DHT22;40360;52.992;6.796;2023-04-15T09:46:15;8.90;99.90
54126;DHT22;40360;52.992;6.796;2023-04-15T09:48:41;9.00;99.90
54126;DHT22;40360;52.992;6.796;2023-04-15T09:51:06;9.00;99.90
54126;DHT22;40360;52.992;6.796;2023-04-15T09:53:34;9.00;99.90
54126;DHT22;40360;52.992;6.796;2023-04-15T09:56:01;9.00;99.90
54126;DHT22;40360;52.992;6.796;2023-04-15T09:58:29;9.10;99.90
54126;DHT22;40360;52.992;6.796;2023-04-15T10:00:58;9.20;99.90
54126;DHT22;40360;52.992;6.796;2023-04-15T10:03:34;9.20;99.90
54126;DHT22;40360;52.992;6.796;2023-04-15T10:06:01;9.30;99.90
54126;DHT22;40360;52.992;6.796;2023-04-15T10:08:29;9.30;99.90
54126;DHT22;40360;52.992;6.796;2023-04-15T10:10:57;9.30;99.90
54126;DHT22;40360;52.992;6.796;2023-04-15T10:13:29;9.30;99.90
54126;DHT22;40360;52.992;6.796;2023-04-15T10:15:58;9.30;99.90
54126;DHT22;40360;52.992;6.796;2023-04-15T10:18:27;9.30;99.90
54126;DHT22;40360;52.992;6.796;2023-04-15T10:20:53;9.30;99.90
54126;DHT22;40360;52.992;6.796;2023-04-15T10:23:21;9.30;99.90
54126;DHT22;40360;52.992;6.796;2023-04-15T10:25:52;9.30;99.90
54126;DHT22;40360;52.992;6.796;2023-04-15T10:28:19;9.30;99.90
54126;DHT22;40360;52.992;6.796;2023-04-15T10:30:47;9.30;99.90
54126;DHT22;40360;52.992;6.796;2023-04-15T10:33:16;9.90;99.90
54126;DHT22;40360;52.992;6.796;2023-04-15T10:35:42;9.30;99.90
54126;DHT22;40360;52.992;6.796;2023-04-15T10:38:34;9.30;99.90
54126;DHT22;40360;52.992;6.796;2023-04-15T10:41:22;9.30;99.90
54126;DHT22;40360;52.992;6.796;2023-04-15T10:43:55;9.20;99.90
54126;DHT22;40360;52.992;6.796;2023-04-15T10:46:43;9.30;99.90
54126;DHT22;40360;52.992;6.796;2023-04-15T10:49:11;9.30;99.90
54126;DHT22;40360;52.992;6.796;2023-04-15T10:51:50;9.30;99.90
54126;DHT22;40360;52.992;6.796;2023-04-15T10:57:05;9.50;99.90
54126;DHT22;40360;52.992;6.796;2023-04-15T10:59:33;9.60;99.90
54126;DHT22;40360;52.992;6.796;2023-04-15T11:02:05;9.70;99.90
54126;DHT22;40360;52.992;6.796;2023-04-15T11:04:56;9.60;99.90
54126;DHT22;40360;52.992;6.796;2023-04-15T11:07:56;9.60;99.90
54126;DHT22;40360;52.992;6.796;2023-04-15T11:13:00;9.60;99.90
54126;DHT22;40360;52.992;6.796;2023-04-15T11:15:34;9.60;99.90
54126;DHT22;40360;52.992;6.796;2023-04-15T11:18:08;9.50;99.90
54126;DHT22;40360;52.992;6.796;2023-04-15T11:20:35;9.50;99.90
54126;DHT22;40360;52.992;6.796;2023-04-15T11:23:01;9.60;99.90
54126;DHT22;40360;52.992;6.796;2023-04-15T11:25:29;9.60;99.90
54126;DHT22;40360;52.992;6.796;2023-04-15T11:27:55;9.70;99.90
54126;DHT22;40360;52.992;6.796;2023-04-15T11:30:23;9.70;99.90
54126;DHT22;40360;52.992;6.796;2023-04-15T11:32:50;9.60;99.90
54126;DHT22;40360;52.992;6.796;2023-04-15T11:35:17;9.50;99.90
54126;DHT22;40360;52.992;6.796;2023-04-15T11:37:47;9.50;99.90
54126;DHT22;40360;52.992;6.796;2023-04-15T11:40:14;9.60;99.90
54126;DHT22;40360;52.992;6.796;2023-04-15T11:42:44;9.90;99.90
54126;DHT22;40360;52.992;6.796;2023-04-15T11:45:14;10.00;99.90
54126;DHT22;40360;52.992;6.796;2023-04-15T11:47:41;10.00;99.90
54126;DHT22;40360;52.992;6.796;2023-04-15T11:50:20;9.90;99.90
54126;DHT22;40360;52.992;6.796;2023-04-15T11:55:19;9.70;99.90
54126;DHT22;40360;52.992;6.796;2023-04-15T11:57:45;9.70;99.90
54126;DHT22;40360;52.992;6.796;2023-04-15T12:00:11;9.80;99.90
54126;DHT22;40360;52.992;6.796;2023-04-15T12:02:37;9.80;99.90
54126;DHT22;40360;52.992;6.796;2023-04-15T12:05:07;9.80;99.90
54126;DHT22;40360;52.992;6.796;2023-04-15T12:07:33;9.90;99.90
54126;DHT22;40360;52.992;6.796;2023-04-15T12:09:59;10.00;99.90
54126;DHT22;40360;52.992;6.796;2023-04-15T12:12:27;10.10;99.90
54126;DHT22;40360;52.992;6.796;2023-04-15T12:14:56;10.10;99.90
54126;DHT22;40360;52.992;6.796;2023-04-15T12:17:22;10.10;99.90
54126;DHT22;40360;52.992;6.796;2023-04-15T12:19:55;10.10;99.90
54126;DHT22;40360;52.992;6.796;2023-04-15T12:22:20;10.00;99.90
54126;DHT22;40360;52.992;6.796;2023-04-15T12:24:53;9.90;99.90
54126;DHT22;40360;52.992;6.796;2023-04-15T12:27:18;9.80;99.90
54126;DHT22;40360;52.992;6.796;2023-04-15T12:29:45;9.70;99.90
54126;DHT22;40360;52.992;6.796;2023-04-15T12:32:15;9.60;99.90
54126;DHT22;40360;52.992;6.796;2023-04-15T12:34:53;9.50;99.90
54126;DHT22;40360;52.992;6.796;2023-04-15T12:37:19;9.50;99.90
54126;DHT22;40360;52.992;6.796;2023-04-15T12:39:47;9.50;99.90
54126;DHT22;40360;52.992;6.796;2023-04-15T12:42:14;9.50;99.90
54126;DHT22;40360;52.992;6.796;2023-04-15T12:44:40;9.50;99.90
54126;DHT22;40360;52.992;6.796;2023-04-15T12:47:07;9.50;99.90
54126;DHT22;40360;52.992;6.796;2023-04-15T12:49:33;9.40;99.90
54126;DHT22;40360;52.992;6.796;2023-04-15T12:52:00;9.30;99.90
54126;DHT22;40360;52.992;6.796;2023-04-15T12:54:26;9.30;99.90
54126;DHT22;40360;52.992;6.796;2023-04-15T12:56:53;9.20;99.90
54126;DHT22;40360;52.992;6.796;2023-04-15T12:59:19;9.30;99.90
54126;DHT22;40360;52.992;6.796;2023-04-15T13:01:46;9.10;99.90
54126;DHT22;40360;52.992;6.796;2023-04-15T13:04:12;9.10;99.90
54126;DHT22;40360;52.992;6.796;2023-04-15T13:06:38;9.10;99.90
54126;DHT22;40360;52.992;6.796;2023-04-15T13:09:07;9.10;99.90
54126;DHT22;40360;52.992;6.796;2023-04-15T13:11:33;9.10;99.90
54126;DHT22;40360;52.992;6.796;2023-04-15T13:14:06;9.00;99.90
54126;DHT22;40360;52.992;6.796;2023-04-15T13:16:32;9.00;99.90
54126;DHT22;40360;52.992;6.796;2023-04-15T13:18:59;9.00;99.90
54126;DHT22;40360;52.992;6.796;2023-04-15T13:21:24;8.90;99.90
54126;DHT22;40360;52.992;6.796;2023-04-15T13:23:51;8.90;99.90
54126;DHT22;40360;52.992;6.796;2023-04-15T13:26:18;8.80;99.90
54126;DHT22;40360;52.992;6.796;2023-04-15T13:28:44;8.90;99.90
54126;DHT22;40360;52.992;6.796;2023-04-15T13:31:09;8.90;99.90
54126;DHT22;40360;52.992;6.796;2023-04-15T13:33:35;8.90;99.90
54126;DHT22;40360;52.992;6.796;2023-04-15T13:36:01;8.90;99.90
54126;DHT22;40360;52.992;6.796;2023-04-15T13:38:27;8.90;99.90
54126;DHT22;40360;52.992;6.796;2023-04-15T13:40:52;8.90;99.90
54126;DHT22;40360;52.992;6.796;2023-04-15T13:43:18;8.90;99.90
54126;DHT22;40360;52.992;6.796;2023-04-15T13:45:45;8.90;99.90
54126;DHT22;40360;52.992;6.796;2023-04-15T13:48:11;8.80;99.90
54126;DHT22;40360;52.992;6.796;2023-04-15T13:50:36;8.80;99.90
54126;DHT22;40360;52.992;6.796;2023-04-15T13:53:02;8.80;99.90
54126;DHT22;40360;52.992;6.796;2023-04-15T13:55:27;8.80;99.90
54126;DHT22;40360;52.992;6.796;2023-04-15T13:57:53;8.80;99.90
54126;DHT22;40360;52.992;6.796;2023-04-15T14:00:19;8.80;99.90
54126;DHT22;40360;52.992;6.796;2023-04-15T14:02:44;8.80;99.90
54126;DHT22;40360;52.992;6.796;2023-04-15T14:05:10;8.80;99.90
54126;DHT22;40360;52.992;6.796;2023-04-15T14:07:36;8.90;99.90
54126;DHT22;40360;52.992;6.796;2023-04-15T14:10:02;8.80;99.90
54126;DHT22;40360;52.992;6.796;2023-04-15T14:12:28;8.70;99.90
54126;DHT22;40360;52.992;6.796;2023-04-15T14:14:54;8.70;99.90
54126;DHT22;40360;52.992;6.796;2023-04-15T14:17:19;8.70;99.90
54126;DHT22;40360;52.992;6.796;2023-04-15T14:19:45;8.70;99.90
54126;DHT22;40360;52.992;6.796;2023-04-15T14:22:11;8.60;99.90
54126;DHT22;40360;52.992;6.796;2023-04-15T14:24:37;8.70;99.90
54126;DHT22;40360;52.992;6.796;2023-04-15T14:27:02;8.70;99.90
54126;DHT22;40360;52.992;6.796;2023-04-15T14:29:28;8.70;99.90
54126;DHT22;40360;52.992;6.796;2023-04-15T14:31:54;8.60;99.90
54126;DHT22;40360;52.992;6.796;2023-04-15T14:34:21;8.70;99.90
54126;DHT22;40360;52.992;6.796;2023-04-15T14:36:50;8.70;99.90
54126;DHT22;40360;52.992;6.796;2023-04-15T14:39:15;8.70;99.90
54126;DHT22;40360;52.992;6.796;2023-04-15T14:41:41;8.70;99.90
54126;DHT22;40360;52.992;6.796;2023-04-15T14:44:06;9.60;99.90
54126;DHT22;40360;52.992;6.796;2023-04-15T14:46:34;8.70;99.90
54126;DHT22;40360;52.992;6.796;2023-04-15T14:48:59;8.60;99.90
54126;DHT22;40360;52.992;6.796;2023-04-15T14:51:25;8.70;99.90
54126;DHT22;40360;52.992;6.796;2023-04-15T14:53:51;9.00;99.90
54126;DHT22;40360;52.992;6.796;2023-04-15T14:56:16;8.60;99.90
54126;DHT22;40360;52.992;6.796;2023-04-15T14:58:45;8.60;99.90
54126;DHT22;40360;52.992;6.796;2023-04-15T15:01:11;8.60;99.90
54126;DHT22;40360;52.992;6.796;2023-04-15T15:03:37;8.60;99.90
54126;DHT22;40360;52.992;6.796;2023-04-15T15:06:03;8.60;99.90
54126;DHT22;40360;52.992;6.796;2023-04-15T15:08:29;8.50;99.90
54126;DHT22;40360;52.992;6.796;2023-04-15T15:10:54;8.50;99.90
54126;DHT22;40360;52.992;6.796;2023-04-15T15:13:20;8.50;99.90
54126;DHT22;40360;52.992;6.796;2023-04-15T15:15:46;8.50;99.90
54126;DHT22;40360;52.992;6.796;2023-04-15T15:18:14;8.40;99.90
54126;DHT22;40360;52.992;6.796;2023-04-15T15:20:40;8.40;99.90
54126;DHT22;40360;52.992;6.796;2023-04-15T15:23:06;8.40;99.90
54126;DHT22;40360;52.992;6.796;2023-04-15T15:25:31;8.40;99.90
54126;DHT22;40360;52.992;6.796;2023-04-15T15:27:57;8.40;99.90
54126;DHT22;40360;52.992;6.796;2023-04-15T15:30:23;8.40;99.90
54126;DHT22;40360;52.992;6.796;2023-04-15T15:32:49;8.50;99.90
54126;DHT22;40360;52.992;6.796;2023-04-15T15:35:14;8.40;99.90
54126;DHT22;40360;52.992;6.796;2023-04-15T15:37:41;8.40;99.90
54126;DHT22;40360;52.992;6.796;2023-04-15T15:40:07;8.40;99.90
54126;DHT22;40360;52.992;6.796;2023-04-15T15:42:33;8.30;99.90
54126;DHT22;40360;52.992;6.796;2023-04-15T15:44:59;8.40;99.90
54126;DHT22;40360;52.992;6.796;2023-04-15T15:47:25;8.40;99.90
54126;DHT22;40360;52.992;6.796;2023-04-15T15:49:51;8.50;99.90
54126;DHT22;40360;52.992;6.796;2023-04-15T15:52:17;8.30;99.90
54126;DHT22;40360;52.992;6.796;2023-04-15T15:54:43;8.30;99.90
54126;DHT22;40360;52.992;6.796;2023-04-15T15:57:09;8.30;99.90
54126;DHT22;40360;52.992;6.796;2023-04-15T15:59:35;8.30;99.90
54126;DHT22;40360;52.992;6.796;2023-04-15T16:02:07;8.30;99.90
54126;DHT22;40360;52.992;6.796;2023-04-15T16:04:33;8.30;99.90
54126;DHT22;40360;52.992;6.796;2023-04-15T16:06:59;8.30;99.90